Hunters Point, Arizona
Current Conditions -  °F | °C
As of 12:53 AM on Thursday 18 Dec 2014 (Local Time) from KRQE Reporting Station
Broken Clouds Broken Clouds  
Wind Chill: 30°   Ceiling: 6000
Heat Index: 30°   Visibility: 10mi
Dew Point: 26°   Wind: 0mph
Humidity: 85%   Direction: NA
Pressure: 30.1"   Gusts: NA
Location:  35.6556°N, 109.102°W
Report Text: KRQE 180753Z AUTO 00000KT 10SM FEW036 BKN060 M01/M03 A3010 RMK AO2 SLP176 T10111033 TSNO
Loading
Personal Weather Stations






























Interactive Weather Map New forecast layout! Learn more

10-Day Weather Forecast

Advertisements
Track Severe Weather on mobile